sensor_id;sensor_type;location;lat;lon;timestamp;pressure;altitude;pressure_sealevel;temperature;humidity
38612;BME280;24368;52.156;20.788;2024-02-26T00:00:35;99766.70;;;7.65;87.26
38612;BME280;24368;52.156;20.788;2024-02-26T00:05:56;99761.83;;;7.54;87.69
38612;BME280;24368;52.156;20.788;2024-02-26T00:10:58;99756.65;;;7.51;87.99
38612;BME280;24368;52.156;20.788;2024-02-26T00:16:18;99751.90;;;7.54;88.35
38612;BME280;24368;52.156;20.788;2024-02-26T00:21:20;99748.45;;;7.49;87.99
38612;BME280;24368;52.156;20.788;2024-02-26T00:26:22;99746.96;;;7.43;88.65
38612;BME280;24368;52.156;20.788;2024-02-26T00:31:24;99748.41;;;7.44;88.63
38612;BME280;24368;52.156;20.788;2024-02-26T00:36:27;99743.77;;;7.44;88.82
38612;BME280;24368;52.156;20.788;2024-02-26T00:41:29;99736.34;;;7.43;88.98
38612;BME280;24368;52.156;20.788;2024-02-26T00:46:31;99737.98;;;7.40;88.99
38612;BME280;24368;52.156;20.788;2024-02-26T00:51:33;99737.36;;;7.14;88.98
38612;BME280;24368;52.156;20.788;2024-02-26T00:56:35;99740.70;;;7.05;89.70
38612;BME280;24368;52.156;20.788;2024-02-26T01:01:37;99746.71;;;6.76;90.25
38612;BME280;24368;52.156;20.788;2024-02-26T01:06:39;99742.75;;;6.76;91.27
38612;BME280;24368;52.156;20.788;2024-02-26T01:11:41;99740.81;;;6.78;91.62
38612;BME280;24368;52.156;20.788;2024-02-26T01:16:43;99740.52;;;6.88;91.19
38612;BME280;24368;52.156;20.788;2024-02-26T01:21:44;99746.98;;;6.80;91.09
38612;BME280;24368;52.156;20.788;2024-02-26T01:26:46;99744.06;;;6.64;92.07
38612;BME280;24368;52.156;20.788;2024-02-26T01:31:48;99741.09;;;6.58;92.42
38612;BME280;24368;52.156;20.788;2024-02-26T01:36:50;99742.84;;;6.52;92.72
38612;BME280;24368;52.156;20.788;2024-02-26T01:44:18;99747.67;;;6.36;93.24
38612;BME280;24368;52.156;20.788;2024-02-26T01:49:21;99749.33;;;6.29;94.25
38612;BME280;24368;52.156;20.788;2024-02-26T01:54:23;99747.77;;;6.30;93.93
38612;BME280;24368;52.156;20.788;2024-02-26T01:59:25;99752.23;;;6.29;94.25
38612;BME280;24368;52.156;20.788;2024-02-26T02:17:09;99744.02;;;6.14;95.41
38612;BME280;24368;52.156;20.788;2024-02-26T02:22:29;99738.87;;;6.08;95.24
38612;BME280;24368;52.156;20.788;2024-02-26T02:27:30;99738.77;;;6.14;95.39
38612;BME280;24368;52.156;20.788;2024-02-26T02:32:31;99735.23;;;6.26;94.94
38612;BME280;24368;52.156;20.788;2024-02-26T02:37:34;99742.01;;;6.30;94.14
38612;BME280;24368;52.156;20.788;2024-02-26T02:42:35;99748.46;;;6.22;94.43
38612;BME280;24368;52.156;20.788;2024-02-26T02:47:36;99752.81;;;6.21;94.51
38612;BME280;24368;52.156;20.788;2024-02-26T02:52:38;99757.20;;;6.15;94.67
38612;BME280;24368;52.156;20.788;2024-02-26T02:57:39;99759.06;;;6.04;95.18
38612;BME280;24368;52.156;20.788;2024-02-26T03:02:42;99762.23;;;5.99;95.34
38612;BME280;24368;52.156;20.788;2024-02-26T03:07:44;99763.00;;;5.91;95.46
38612;BME280;24368;52.156;20.788;2024-02-26T03:12:45;99763.10;;;5.89;95.78
38612;BME280;24368;52.156;20.788;2024-02-26T03:17:46;99771.44;;;5.92;95.66
38612;BME280;24368;52.156;20.788;2024-02-26T03:22:48;99772.60;;;5.93;95.74
38612;BME280;24368;52.156;20.788;2024-02-26T03:27:49;99777.53;;;5.90;95.65
38612;BME280;24368;52.156;20.788;2024-02-26T03:32:51;99773.13;;;5.87;95.81
38612;BME280;24368;52.156;20.788;2024-02-26T03:37:52;99768.16;;;5.98;95.92
38612;BME280;24368;52.156;20.788;2024-02-26T03:42:54;99766.66;;;6.02;95.22
38612;BME280;24368;52.156;20.788;2024-02-26T03:47:58;99762.83;;;5.96;95.10
38612;BME280;24368;52.156;20.788;2024-02-26T03:52:59;99765.07;;;5.95;95.20
38612;BME280;24368;52.156;20.788;2024-02-26T03:58:01;99769.60;;;5.82;94.84
38612;BME280;24368;52.156;20.788;2024-02-26T04:03:02;99770.04;;;5.75;95.35
38612;BME280;24368;52.156;20.788;2024-02-26T04:08:05;99772.92;;;5.68;95.30
38612;BME280;24368;52.156;20.788;2024-02-26T04:13:09;99779.88;;;5.54;95.20
38612;BME280;24368;52.156;20.788;2024-02-26T04:18:10;99777.67;;;5.35;96.11
38612;BME280;24368;52.156;20.788;2024-02-26T04:23:11;99782.89;;;5.41;96.65
38612;BME280;24368;52.156;20.788;2024-02-26T04:28:12;99777.67;;;5.39;96.64
38612;BME280;24368;52.156;20.788;2024-02-26T04:33:14;99776.36;;;5.38;96.83
38612;BME280;24368;52.156;20.788;2024-02-26T04:38:15;99776.25;;;5.35;96.92
38612;BME280;24368;52.156;20.788;2024-02-26T04:43:16;99775.42;;;5.25;97.35
38612;BME280;24368;52.156;20.788;2024-02-26T04:48:19;99773.27;;;5.35;97.58
38612;BME280;24368;52.156;20.788;2024-02-26T04:53:20;99769.73;;;5.47;97.37
38612;BME280;24368;52.156;20.788;2024-02-26T04:58:41;99771.42;;;5.49;97.28
38612;BME280;24368;52.156;20.788;2024-02-26T05:03:42;99779.77;;;5.46;97.35
38612;BME280;24368;52.156;20.788;2024-02-26T05:08:44;99782.91;;;5.44;97.53
38612;BME280;24368;52.156;20.788;2024-02-26T05:13:49;99782.94;;;5.46;98.81
38612;BME280;24368;52.156;20.788;2024-02-26T05:18:51;99780.84;;;5.61;98.69
38612;BME280;24368;52.156;20.788;2024-02-26T05:23:52;99782.02;;;5.70;98.33
38612;BME280;24368;52.156;20.788;2024-02-26T05:28:53;99787.87;;;5.76;98.61
38612;BME280;24368;52.156;20.788;2024-02-26T05:34:01;99794.17;;;5.75;98.33
38612;BME280;24368;52.156;20.788;2024-02-26T05:39:03;99806.06;;;5.86;98.52
38612;BME280;24368;52.156;20.788;2024-02-26T05:44:04;99798.71;;;5.88;98.34
38612;BME280;24368;52.156;20.788;2024-02-26T05:49:06;99800.94;;;5.92;98.30
38612;BME280;24368;52.156;20.788;2024-02-26T05:54:26;99804.63;;;5.90;98.47
38612;BME280;24368;52.156;20.788;2024-02-26T05:59:45;99807.22;;;5.87;98.75
38612;BME280;24368;52.156;20.788;2024-02-26T06:04:46;99813.23;;;5.80;99.22
38612;BME280;24368;52.156;20.788;2024-02-26T06:09:48;99817.20;;;5.79;99.66
38612;BME280;24368;52.156;20.788;2024-02-26T06:14:50;99820.14;;;5.91;99.76
38612;BME280;24368;52.156;20.788;2024-02-26T06:19:51;99816.67;;;6.03;99.75
38612;BME280;24368;52.156;20.788;2024-02-26T06:24:53;99818.55;;;6.16;99.20
38612;BME280;24368;52.156;20.788;2024-02-26T06:29:54;99820.29;;;6.27;98.97
38612;BME280;24368;52.156;20.788;2024-02-26T06:34:55;99821.13;;;6.36;98.73
38612;BME280;24368;52.156;20.788;2024-02-26T06:39:57;99825.01;;;6.36;98.84
38612;BME280;24368;52.156;20.788;2024-02-26T06:44:58;99822.92;;;6.37;99.14
38612;BME280;24368;52.156;20.788;2024-02-26T06:50:00;99823.87;;;6.37;99.01
38612;BME280;24368;52.156;20.788;2024-02-26T06:55:02;99829.27;;;6.44;99.63
38612;BME280;24368;52.156;20.788;2024-02-26T07:00:04;99830.69;;;6.64;99.41
38612;BME280;24368;52.156;20.788;2024-02-26T07:05:08;99832.64;;;6.91;98.94
38612;BME280;24368;52.156;20.788;2024-02-26T07:10:10;99833.15;;;7.13;98.40
38612;BME280;24368;52.156;20.788;2024-02-26T07:15:13;99839.23;;;7.15;98.29
38612;BME280;24368;52.156;20.788;2024-02-26T07:20:15;99835.41;;;7.13;98.61
38612;BME280;24368;52.156;20.788;2024-02-26T07:25:19;99838.33;;;7.20;98.75
38612;BME280;24368;52.156;20.788;2024-02-26T07:30:22;99847.27;;;7.33;99.09
38612;BME280;24368;52.156;20.788;2024-02-26T07:35:23;99849.23;;;7.53;98.61
38612;BME280;24368;52.156;20.788;2024-02-26T07:40:26;99849.41;;;7.74;97.89
38612;BME280;24368;52.156;20.788;2024-02-26T07:45:28;99855.82;;;7.98;97.34
38612;BME280;24368;52.156;20.788;2024-02-26T07:50:31;99859.63;;;8.14;96.30
38612;BME280;24368;52.156;20.788;2024-02-26T07:55:32;99865.63;;;8.22;96.09
38612;BME280;24368;52.156;20.788;2024-02-26T08:00:51;99864.42;;;8.20;96.37
38612;BME280;24368;52.156;20.788;2024-02-26T08:05:52;99871.39;;;8.28;96.34
38612;BME280;24368;52.156;20.788;2024-02-26T08:10:57;99874.74;;;8.40;96.47
38612;BME280;24368;52.156;20.788;2024-02-26T08:15:58;99875.84;;;8.60;95.89
38612;BME280;24368;52.156;20.788;2024-02-26T08:21:00;99870.92;;;8.71;95.84
38612;BME280;24368;52.156;20.788;2024-02-26T08:26:01;99869.88;;;8.77;96.34
38612;BME280;24368;52.156;20.788;2024-02-26T08:31:05;99875.95;;;8.79;96.62
38612;BME280;24368;52.156;20.788;2024-02-26T08:36:08;99875.73;;;8.96;96.83
38612;BME280;24368;52.156;20.788;2024-02-26T08:41:09;99881.77;;;9.19;96.48
38612;BME280;24368;52.156;20.788;2024-02-26T08:46:12;99884.80;;;9.47;95.72
38612;BME280;24368;52.156;20.788;2024-02-26T08:51:13;99883.29;;;9.61;95.12
38612;BME280;24368;52.156;20.788;2024-02-26T08:56:15;99880.31;;;9.61;94.97
38612;BME280;24368;52.156;20.788;2024-02-26T09:01:17;99879.91;;;9.65;95.16
38612;BME280;24368;52.156;20.788;2024-02-26T09:06:18;99877.58;;;9.71;95.03
38612;BME280;24368;52.156;20.788;2024-02-26T09:11:20;99884.98;;;9.77;95.08
38612;BME280;24368;52.156;20.788;2024-02-26T09:16:21;99885.02;;;9.93;94.92
38612;BME280;24368;52.156;20.788;2024-02-26T09:21:24;99888.73;;;10.14;94.39
38612;BME280;24368;52.156;20.788;2024-02-26T09:26:25;99890.34;;;10.32;93.94
38612;BME280;24368;52.156;20.788;2024-02-26T09:31:28;99892.97;;;10.32;93.92
38612;BME280;24368;52.156;20.788;2024-02-26T09:36:30;99885.94;;;10.29;94.21
38612;BME280;24368;52.156;20.788;2024-02-26T09:41:32;99883.53;;;10.45;94.12
38612;BME280;24368;52.156;20.788;2024-02-26T09:46:34;99885.48;;;10.63;93.19
38612;BME280;24368;52.156;20.788;2024-02-26T09:51:36;99889.39;;;10.76;92.46
38612;BME280;24368;52.156;20.788;2024-02-26T09:56:39;99887.34;;;10.82;92.30
38612;BME280;24368;52.156;20.788;2024-02-26T10:01:44;99888.27;;;10.88;92.12
38612;BME280;24368;52.156;20.788;2024-02-26T10:06:48;99893.71;;;11.02;91.73
38612;BME280;24368;52.156;20.788;2024-02-26T10:11:51;99897.77;;;11.33;89.96
38612;BME280;24368;52.156;20.788;2024-02-26T10:28:59;99892.48;;;11.55;88.25
38612;BME280;24368;52.156;20.788;2024-02-26T10:34:01;99895.13;;;11.70;88.45
38612;BME280;24368;52.156;20.788;2024-02-26T10:39:05;99900.11;;;11.78;88.38
38612;BME280;24368;52.156;20.788;2024-02-26T10:44:11;99903.64;;;11.83;88.01
38612;BME280;24368;52.156;20.788;2024-02-26T10:49:15;99900.73;;;11.75;87.88
38612;BME280;24368;52.156;20.788;2024-02-26T10:54:20;99901.45;;;11.79;87.90
38612;BME280;24368;52.156;20.788;2024-02-26T10:59:42;99901.98;;;11.67;88.39
38612;BME280;24368;52.156;20.788;2024-02-26T11:04:47;99904.38;;;11.57;88.54
38612;BME280;24368;52.156;20.788;2024-02-26T11:13:19;99899.37;;;11.64;88.18
38612;BME280;24368;52.156;20.788;2024-02-26T11:18:23;99902.28;;;11.51;89.31
38612;BME280;24368;52.156;20.788;2024-02-26T11:23:28;99907.80;;;11.31;89.78
38612;BME280;24368;52.156;20.788;2024-02-26T11:28:32;99911.27;;;10.99;90.38
38612;BME280;24368;52.156;20.788;2024-02-26T11:33:35;99918.70;;;10.96;91.14
38612;BME280;24368;52.156;20.788;2024-02-26T11:38:38;99916.88;;;11.27;89.80
38612;BME280;24368;52.156;20.788;2024-02-26T11:44:02;99910.52;;;11.59;88.64
38612;BME280;24368;52.156;20.788;2024-02-26T11:54:51;99898.89;;;19.65;62.27
38612;BME280;24368;52.156;20.788;2024-02-26T12:00:10;99896.70;;;21.75;52.75
38612;BME280;24368;52.156;20.788;2024-02-26T12:05:19;99898.33;;;22.85;49.42
38612;BME280;24368;52.156;20.788;2024-02-26T12:20:59;99892.90;;;21.30;49.25
38612;BME280;24368;52.156;20.788;2024-02-26T12:26:02;99894.85;;;19.42;54.21
38612;BME280;24368;52.156;20.788;2024-02-26T12:31:05;99895.98;;;18.84;56.68
38612;BME280;24368;52.156;20.788;2024-02-26T12:36:07;99892.05;;;18.37;55.31
38612;BME280;24368;52.156;20.788;2024-02-26T12:41:09;99882.78;;;17.38;59.17
38612;BME280;24368;52.156;20.788;2024-02-26T12:46:11;99885.04;;;16.61;60.99
38612;BME280;24368;52.156;20.788;2024-02-26T12:51:17;99880.83;;;17.54;59.80
38612;BME280;24368;52.156;20.788;2024-02-26T12:56:20;99886.72;;;18.02;57.61
38612;BME280;24368;52.156;20.788;2024-02-26T13:01:24;99891.70;;;18.18;55.77
38612;BME280;24368;52.156;20.788;2024-02-26T13:06:26;99893.68;;;19.25;52.25
38612;BME280;24368;52.156;20.788;2024-02-26T13:11:28;99883.48;;;20.75;48.79
38612;BME280;24368;52.156;20.788;2024-02-26T13:16:30;99874.15;;;23.58;43.25
38612;BME280;24368;52.156;20.788;2024-02-26T13:21:32;99873.43;;;24.77;40.21
38612;BME280;24368;52.156;20.788;2024-02-26T13:26:34;99877.08;;;24.90;39.33
38612;BME280;24368;52.156;20.788;2024-02-26T13:31:57;99877.75;;;24.84;38.94
38612;BME280;24368;52.156;20.788;2024-02-26T13:37:00;99891.73;;;22.10;44.29
38612;BME280;24368;52.156;20.788;2024-02-26T13:42:02;99888.50;;;20.28;48.84
38612;BME280;24368;52.156;20.788;2024-02-26T13:47:04;99889.59;;;19.16;50.81
38612;BME280;24368;52.156;20.788;2024-02-26T13:52:06;99880.52;;;18.65;52.61
38612;BME280;24368;52.156;20.788;2024-02-26T13:57:08;99877.52;;;18.79;51.42
38612;BME280;24368;52.156;20.788;2024-02-26T14:02:11;99870.80;;;17.94;54.01
38612;BME280;24368;52.156;20.788;2024-02-26T14:07:13;99867.55;;;17.29;55.67
38612;BME280;24368;52.156;20.788;2024-02-26T14:12:15;99869.48;;;16.96;56.45
38612;BME280;24368;52.156;20.788;2024-02-26T14:17:17;99880.09;;;16.93;55.86
38612;BME280;24368;52.156;20.788;2024-02-26T14:31:28;99886.51;;;18.25;52.46
38612;BME280;24368;52.156;20.788;2024-02-26T14:36:34;99891.09;;;17.67;52.40
38612;BME280;24368;52.156;20.788;2024-02-26T14:41:36;99892.13;;;17.11;53.60
38612;BME280;24368;52.156;20.788;2024-02-26T14:46:38;99890.10;;;16.52;54.85
38612;BME280;24368;52.156;20.788;2024-02-26T14:51:41;99890.14;;;15.74;57.00
38612;BME280;24368;52.156;20.788;2024-02-26T15:05:54;99861.20;;;14.85;61.72
38612;BME280;24368;52.156;20.788;2024-02-26T15:10:56;99873.55;;;14.61;62.75
38612;BME280;24368;52.156;20.788;2024-02-26T15:15:58;99888.10;;;14.41;63.95
38612;BME280;24368;52.156;20.788;2024-02-26T15:21:00;99895.27;;;14.21;64.92
38612;BME280;24368;52.156;20.788;2024-02-26T15:26:04;99896.00;;;14.01;65.73
38612;BME280;24368;52.156;20.788;2024-02-26T15:31:06;99897.27;;;13.88;66.64
38612;BME280;24368;52.156;20.788;2024-02-26T15:36:12;99899.93;;;13.62;67.65
38612;BME280;24368;52.156;20.788;2024-02-26T15:41:14;99898.02;;;13.41;68.46
38612;BME280;24368;52.156;20.788;2024-02-26T15:46:16;99898.98;;;13.30;69.09
38612;BME280;24368;52.156;20.788;2024-02-26T15:51:22;99901.66;;;13.21;69.99
38612;BME280;24368;52.156;20.788;2024-02-26T15:56:28;99909.27;;;13.09;70.84
38612;BME280;24368;52.156;20.788;2024-02-26T16:01:30;99911.90;;;12.88;71.84
38612;BME280;24368;52.156;20.788;2024-02-26T16:06:52;99914.02;;;12.87;72.46
38612;BME280;24368;52.156;20.788;2024-02-26T16:11:56;99920.98;;;12.75;73.08
38612;BME280;24368;52.156;20.788;2024-02-26T16:17:25;99925.14;;;12.64;73.98
38612;BME280;24368;52.156;20.788;2024-02-26T16:22:26;99923.48;;;12.57;74.64
38612;BME280;24368;52.156;20.788;2024-02-26T16:27:28;99927.71;;;12.57;75.20
38612;BME280;24368;52.156;20.788;2024-02-26T16:32:31;99938.44;;;12.46;76.10
38612;BME280;24368;52.156;20.788;2024-02-26T16:37:34;99943.92;;;12.46;76.71
38612;BME280;24368;52.156;20.788;2024-02-26T16:42:37;99943.05;;;12.38;77.54
38612;BME280;24368;52.156;20.788;2024-02-26T16:47:39;99947.09;;;12.41;77.97
38612;BME280;24368;52.156;20.788;2024-02-26T16:52:43;99947.27;;;12.40;78.64
38612;BME280;24368;52.156;20.788;2024-02-26T16:57:45;99948.77;;;12.37;79.10
38612;BME280;24368;52.156;20.788;2024-02-26T17:02:47;99946.70;;;12.32;79.90
38612;BME280;24368;52.156;20.788;2024-02-26T17:07:50;99947.48;;;12.31;80.65
38612;BME280;24368;52.156;20.788;2024-02-26T17:12:52;99960.15;;;12.24;81.27
38612;BME280;24368;52.156;20.788;2024-02-26T17:17:54;99958.27;;;12.20;81.98
38612;BME280;24368;52.156;20.788;2024-02-26T17:22:56;99959.67;;;12.26;82.12
38612;BME280;24368;52.156;20.788;2024-02-26T17:27:57;99960.54;;;12.33;82.42
38612;BME280;24368;52.156;20.788;2024-02-26T17:32:59;99960.81;;;12.51;82.24
38612;BME280;24368;52.156;20.788;2024-02-26T17:38:01;99962.31;;;12.58;81.88
38612;BME280;24368;52.156;20.788;2024-02-26T17:43:04;99967.95;;;12.48;82.45
38612;BME280;24368;52.156;20.788;2024-02-26T17:48:24;99969.11;;;12.40;83.29
38612;BME280;24368;52.156;20.788;2024-02-26T17:53:26;99968.61;;;12.31;83.91
38612;BME280;24368;52.156;20.788;2024-02-26T17:58:32;99965.14;;;12.23;84.68
38612;BME280;24368;52.156;20.788;2024-02-26T18:03:38;99972.42;;;12.19;85.12
38612;BME280;24368;52.156;20.788;2024-02-26T18:13:14;99972.48;;;12.17;85.94
38612;BME280;24368;52.156;20.788;2024-02-26T18:18:23;99973.79;;;12.27;85.50
38612;BME280;24368;52.156;20.788;2024-02-26T18:23:26;99975.09;;;12.28;85.89
38612;BME280;24368;52.156;20.788;2024-02-26T18:28:29;99974.23;;;12.30;85.91
38612;BME280;24368;52.156;20.788;2024-02-26T18:33:31;99970.83;;;12.21;86.19
38612;BME280;24368;52.156;20.788;2024-02-26T18:38:34;99969.11;;;12.06;86.83
38612;BME280;24368;52.156;20.788;2024-02-26T18:43:36;99967.39;;;11.99;87.66
38612;BME280;24368;52.156;20.788;2024-02-26T18:48:38;99970.67;;;12.05;87.69
38612;BME280;24368;52.156;20.788;2024-02-26T18:53:40;99968.58;;;12.09;87.67
38612;BME280;24368;52.156;20.788;2024-02-26T18:58:45;99962.45;;;12.13;87.72
38612;BME280;24368;52.156;20.788;2024-02-26T19:03:47;99965.38;;;12.10;87.81
38612;BME280;24368;52.156;20.788;2024-02-26T19:08:49;99976.05;;;11.99;88.60
38612;BME280;24368;52.156;20.788;2024-02-26T19:14:08;99976.84;;;11.92;89.06
38612;BME280;24368;52.156;20.788;2024-02-26T19:19:10;99983.50;;;11.90;89.66
38612;BME280;24368;52.156;20.788;2024-02-26T19:24:12;99981.41;;;11.91;89.75
38612;BME280;24368;52.156;20.788;2024-02-26T19:29:17;99979.91;;;11.98;90.11
38612;BME280;24368;52.156;20.788;2024-02-26T19:34:19;99985.98;;;12.03;89.91
38612;BME280;24368;52.156;20.788;2024-02-26T19:39:23;99986.11;;;11.97;89.99
38612;BME280;24368;52.156;20.788;2024-02-26T19:44:44;99986.48;;;11.85;90.66
38612;BME280;24368;52.156;20.788;2024-02-26T19:49:47;99989.71;;;11.79;91.29
38612;BME280;24368;52.156;20.788;2024-02-26T19:54:49;99988.84;;;11.85;91.28
38612;BME280;24368;52.156;20.788;2024-02-26T19:59:52;99987.75;;;11.86;91.58
38612;BME280;24368;52.156;20.788;2024-02-26T20:04:55;99989.86;;;11.87;91.57
38612;BME280;24368;52.156;20.788;2024-02-26T20:09:57;99987.11;;;11.77;92.30
38612;BME280;24368;52.156;20.788;2024-02-26T20:14:59;99991.48;;;11.66;92.76
38612;BME280;24368;52.156;20.788;2024-02-26T20:20:02;99990.33;;;11.59;93.52
38612;BME280;24368;52.156;20.788;2024-02-26T20:25:04;99993.06;;;11.57;93.82
38612;BME280;24368;52.156;20.788;2024-02-26T20:39:36;99994.66;;;11.53;94.52
38612;BME280;24368;52.156;20.788;2024-02-26T20:44:38;99998.16;;;11.50;94.52
38612;BME280;24368;52.156;20.788;2024-02-26T20:49:40;99999.26;;;11.47;94.70
38612;BME280;24368;52.156;20.788;2024-02-26T20:54:42;100007.89;;;11.50;94.87
38612;BME280;24368;52.156;20.788;2024-02-26T20:59:44;100006.38;;;11.43;95.32
38612;BME280;24368;52.156;20.788;2024-02-26T21:04:47;100003.79;;;11.55;95.23
38612;BME280;24368;52.156;20.788;2024-02-26T21:09:49;99998.69;;;11.59;94.87
38612;BME280;24368;52.156;20.788;2024-02-26T21:14:53;100007.20;;;11.50;95.34
38612;BME280;24368;52.156;20.788;2024-02-26T21:20:16;100019.09;;;11.40;96.07
38612;BME280;24368;52.156;20.788;2024-02-26T21:25:21;100021.48;;;11.35;96.62
38612;BME280;24368;52.156;20.788;2024-02-26T21:30:23;100020.11;;;11.31;96.79
38612;BME280;24368;52.156;20.788;2024-02-26T21:35:25;100031.25;;;11.34;96.95
38612;BME280;24368;52.156;20.788;2024-02-26T21:45:33;100037.20;;;11.59;95.92
38612;BME280;24368;52.156;20.788;2024-02-26T21:50:37;100041.39;;;11.62;95.55
38612;BME280;24368;52.156;20.788;2024-02-26T21:55:39;100044.42;;;11.57;95.45
38612;BME280;24368;52.156;20.788;2024-02-26T22:00:40;100047.07;;;11.48;95.95
38612;BME280;24368;52.156;20.788;2024-02-26T22:05:43;100048.73;;;11.48;96.26
38612;BME280;24368;52.156;20.788;2024-02-26T22:10:45;100048.69;;;11.55;95.94
38612;BME280;24368;52.156;20.788;2024-02-26T22:15:48;100050.74;;;11.60;95.75
38612;BME280;24368;52.156;20.788;2024-02-26T22:21:08;100053.17;;;11.61;95.50
38612;BME280;24368;52.156;20.788;2024-02-26T22:26:28;100057.37;;;11.48;95.86
38612;BME280;24368;52.156;20.788;2024-02-26T22:31:31;100061.70;;;11.38;96.40
38612;BME280;24368;52.156;20.788;2024-02-26T22:36:33;100065.48;;;11.34;96.69
38612;BME280;24368;52.156;20.788;2024-02-26T22:41:42;100070.00;;;11.32;96.72
38612;BME280;24368;52.156;20.788;2024-02-26T22:46:44;100076.23;;;11.36;96.58
38612;BME280;24368;52.156;20.788;2024-02-26T22:51:45;100077.85;;;11.45;96.20
38612;BME280;24368;52.156;20.788;2024-02-26T22:56:47;100082.02;;;11.44;95.97
38612;BME280;24368;52.156;20.788;2024-02-26T23:01:48;100084.77;;;11.42;95.83
38612;BME280;24368;52.156;20.788;2024-02-26T23:06:49;100081.30;;;11.26;96.17
38612;BME280;24368;52.156;20.788;2024-02-26T23:11:50;100085.35;;;11.13;96.59
38612;BME280;24368;52.156;20.788;2024-02-26T23:16:52;100086.09;;;11.03;97.16
38612;BME280;24368;52.156;20.788;2024-02-26T23:22:11;100088.84;;;10.97;97.30
38612;BME280;24368;52.156;20.788;2024-02-26T23:27:31;100091.26;;;10.99;97.24
38612;BME280;24368;52.156;20.788;2024-02-26T23:32:32;100098.36;;;10.94;97.38
38612;BME280;24368;52.156;20.788;2024-02-26T23:37:35;100094.66;;;10.91;97.47
38612;BME280;24368;52.156;20.788;2024-02-26T23:42:36;100100.27;;;10.86;97.39
38612;BME280;24368;52.156;20.788;2024-02-26T23:47:37;100107.33;;;10.77;97.70
38612;BME280;24368;52.156;20.788;2024-02-26T23:52:39;100108.14;;;10.61;98.59
38612;BME280;24368;52.156;20.788;2024-02-26T23:57:40;100116.29;;;10.58;98.63
